CST,Max TemperatureF,Mean TemperatureF,Min TemperatureF,Max Dew PointF,MeanDew PointF,Min DewpointF,Max Humidity, Mean Humidity, Min Humidity, Max Sea Level PressureIn, Mean Sea Level PressureIn, Min Sea Level PressureIn, Max VisibilityMiles, Mean VisibilityMiles, Min VisibilityMiles, Max Wind SpeedMPH, Mean Wind SpeedMPH, Max Gust SpeedMPH,PrecipitationIn, CloudCover, Events, WindDirDegrees
2012-12-1,73,55,35,32,28,23,81,43,18,30.01,29.88,29.78,10,10,10,20,11,24,0.00,0,,296
2012-12-2,69,50,32,32,25,19,80,44,17,30.05,29.93,29.76,10,10,10,21,9,24,0.00,0,,215
2012-12-3,69,56,42,34,27,18,66,35,21,30.16,29.89,29.70,10,10,10,29,16,39,0.00,1,,320
2012-12-4,60,46,32,32,20,9,81,44,14,30.39,30.29,30.16,10,10,7,10,6,,0.00,1,,238
2012-12-5,62,47,32,23,18,12,48,33,20,30.28,30.13,29.93,10,10,10,21,11,28,0.00,0,,176
2012-12-6,59,48,35,30,26,23,61,45,29,29.96,29.87,29.77,10,10,10,24,16,30,0.00,0,,359
2012-12-7,57,44,32,28,24,19,80,54,31,29.96,29.88,29.80,10,10,10,13,6,,0.00,0,,336
2012-12-8,50,36,23,36,29,19,100,76,46,29.95,29.82,29.68,10,9,0,20,7,23,0.00,2,,134
2012-12-9,41,31,21,39,16,3,100,55,35,30.21,30.03,29.74,10,9,0,32,19,43,0.00,7,,354
2012-12-10,42,24,5,7,2,-6,72,42,13,30.20,30.04,29.92,10,10,10,23,12,22,0.00,0,,246
2012-12-11,46,30,14,16,9,3,67,43,22,30.10,30.03,29.97,10,10,10,12,7,,0.00,1,,233
2012-12-12,59,41,23,14,13,9,63,37,17,30.05,29.97,29.92,10,10,10,22,12,30,0.00,0,,182
2012-12-13,68,49,30,27,15,9,53,32,12,30.05,29.99,29.96,10,10,10,17,10,22,0.00,0,,201
2012-12-14,55,47,39,48,40,28,94,78,57,29.98,29.75,29.50,10,10,2,30,15,41,0.20,3,,184
2012-12-15,60,46,33,34,31,28,87,61,31,29.78,29.70,29.56,10,10,10,29,16,36,0.00,0,,241
2012-12-16,44,37,30,34,31,28,100,86,61,29.84,29.73,29.66,10,8,0,21,9,25,0.00,3,,288
2012-12-17,53,40,26,36,28,21,100,76,28,29.86,29.79,29.68,10,7,0,17,8,20,0.00,0,,241
2012-12-18,57,44,30,27,21,9,75,48,15,29.86,29.76,29.67,10,10,10,16,11,18,0.00,0,,195
2012-12-19,62,45,28,32,27,19,93,61,27,30.03,29.64,29.44,10,9,0,39,17,53,0.00,2,,225
2012-12-20,46,32,19,25,12,9,86,51,22,30.35,30.26,30.04,10,10,3,34,20,44,0.00,0,,293
2012-12-21,60,40,21,18,13,10,68,40,16,30.29,30.21,30.12,10,10,10,13,8,,0.00,0,,216
2012-12-22,53,38,24,23,14,9,65,38,19,30.11,29.99,29.92,10,10,10,12,8,,0.00,0,,258
2012-12-23,53,34,15,23,19,12,86,62,22,29.98,29.92,29.84,10,10,10,12,7,,0.00,0,,311
2012-12-24,42,32,21,21,19,14,80,63,39,30.03,29.90,29.78,10,10,10,20,10,26,0.00,1,,82
2012-12-25,24,17,10,16,13,7,93,82,68,30.27,30.08,29.84,10,6,1,31,20,39,0.00,5,,2
2012-12-26,24,14,3,18,9,0,92,77,54,30.24,30.05,29.82,10,10,10,24,11,28,0.00,1,,164
2012-12-27,30,24,17,21,18,14,93,80,69,29.95,29.79,29.69,10,10,10,21,13,26,0.00,3,,314
2012-12-28,35,24,14,21,16,12,93,75,52,30.17,30.02,29.93,10,10,10,18,12,23,0.00,3,,323
2012-12-29,44,29,14,19,15,10,86,62,29,30.34,30.25,30.17,10,10,10,15,9,18,0.00,0,,235
2012-12-30,44,34,23,30,18,14,93,52,31,30.19,30.08,29.98,10,10,5,38,15,46,0.02,1,,185
2012-12-31,32,26,19,32,28,16,100,95,86,30.11,29.97,29.88,10,6,1,9,5,,0.16,8,,303